Time;durP1;ratioP1;P1;durP2;ratioP2;P2;SDS_P1;SDS_P2;PMS_P1;PMS_P2;Temp;Humidity;BMP_temperature;BMP_pressure;BME280_temperature;BME280_humidity;BME280_pressure;Samples;Min_cycle;Max_cycle;Signal;HPM_P1;HPM_P2
2023/08/28 00:01:28;;;;;;;0.80;0.50;;;;;;;15.19;100.00;98821.27;106746;1269;27169;-51
2023/08/28 00:03:57;;;;;;;0.30;0.30;;;;;;;15.14;100.00;98820.29;107214;1269;25325;-51
2023/08/28 00:06:25;;;;;;;0.50;0.30;;;;;;;15.12;100.00;98816.09;107335;1263;98974;-49
2023/08/28 00:08:54;;;;;;;1.00;0.50;;;;;;;15.06;100.00;98817.98;106795;1268;25297;-51
2023/08/28 00:11:23;;;;;;;1.20;0.60;;;;;;;15.04;100.00;98817.77;106959;1269;99054;-51
2023/08/28 00:13:52;;;;;;;0.60;0.50;;;;;;;14.94;100.00;98820.81;107000;1269;22550;-52
2023/08/28 00:16:21;;;;;;;3.00;1.30;;;;;;;14.92;100.00;98821.88;106973;1269;25300;-51
2023/08/28 00:18:49;;;;;;;1.70;0.40;;;;;;;14.91;100.00;98820.35;107158;1268;98867;-51
2023/08/28 00:21:18;;;;;;;0.40;0.40;;;;;;;14.93;100.00;98822.29;106853;1269;22546;-52
2023/08/28 00:23:47;;;;;;;0.90;0.60;;;;;;;14.92;100.00;98828.17;107078;1269;98858;-50
2023/08/28 00:26:16;;;;;;;0.70;0.50;;;;;;;14.94;100.00;98825.40;106855;1269;25390;-51
2023/08/28 00:28:45;;;;;;;0.60;0.40;;;;;;;14.93;100.00;98826.33;107139;1269;22531;-51
2023/08/28 00:31:13;;;;;;;0.70;0.50;;;;;;;14.93;100.00;98825.16;106790;1263;98827;-51
2023/08/28 00:33:42;;;;;;;0.90;0.50;;;;;;;14.93;100.00;98840.71;106717;1269;22562;-50
2023/08/28 00:36:35;;;;;;;0.70;0.60;;;;;;;14.93;100.00;98855.99;107279;1259;22900;-52
2023/08/28 00:39:06;;;;;;;1.00;0.60;;;;;;;14.92;100.00;98870.41;106626;1272;23799;-52
2023/08/28 00:41:36;;;;;;;0.70;0.70;;;;;;;14.91;100.00;98859.84;106382;1274;99148;-51
2023/08/28 00:44:08;;;;;;;0.50;0.40;;;;;;;14.88;100.00;98847.08;106579;1273;24660;-51
2023/08/28 00:46:37;;;;;;;0.60;0.40;;;;;;;14.81;100.00;98850.75;106989;1274;24180;-51
2023/08/28 00:49:06;;;;;;;0.30;0.30;;;;;;;14.76;100.00;98847.30;106470;1274;99210;-51
2023/08/28 00:51:35;;;;;;;1.90;0.60;;;;;;;14.67;100.00;98839.99;106534;1270;22529;-52
2023/08/28 00:54:04;;;;;;;0.90;0.60;;;;;;;14.57;100.00;98840.57;106739;1274;99620;-52
2023/08/28 00:56:34;;;;;;;2.90;0.60;;;;;;;14.53;100.00;98839.62;107233;1257;25400;-50
2023/08/28 00:59:03;;;;;;;1.10;0.70;;;;;;;14.58;100.00;98831.77;106288;1273;98164;-52
2023/08/28 01:01:33;;;;;;;1.00;0.80;;;;;;;14.52;100.00;98830.41;108250;1273;23010;-51
2023/08/28 01:04:02;;;;;;;0.80;0.60;;;;;;;14.39;100.00;98831.56;106706;1267;22526;-50
2023/08/28 01:06:42;;;;;;;1.30;1.20;;;;;;;14.35;100.00;98827.04;106452;1273;99222;-51
2023/08/28 01:09:16;;;;;;;0.60;0.50;;;;;;;14.39;100.00;98819.54;110146;1273;22276;-52
2023/08/28 01:11:51;;;;;;;1.60;0.90;;;;;;;14.32;100.00;98818.48;110050;1273;99141;-52
2023/08/28 01:14:28;;;;;;;0.50;0.50;;;;;;;14.19;100.00;98817.42;107574;1276;23874;-52
2023/08/28 01:17:02;;;;;;;1.30;0.60;;;;;;;14.11;100.00;98812.45;109967;1273;99611;-52
2023/08/28 01:19:42;;;;;;;1.10;0.60;;;;;;;14.01;100.00;98826.27;110134;1273;22332;-53
2023/08/28 01:22:33;;;;;;;1.00;0.70;;;;;;;14.06;100.00;98830.80;109299;1275;22523;-51
2023/08/28 01:25:07;;;;;;;1.10;0.60;;;;;;;14.20;100.00;98819.23;106582;1273;99576;-50
2023/08/28 01:27:40;;;;;;;0.70;0.50;;;;;;;14.30;100.00;98803.23;106701;1273;22548;-53
2023/08/28 01:30:11;;;;;;;0.70;0.50;;;;;;;14.35;100.00;98791.82;106585;1274;98944;-51
2023/08/28 01:32:44;;;;;;;1.10;0.70;;;;;;;14.25;100.00;98775.66;106534;1277;23933;-52
2023/08/28 01:35:20;;;;;;;0.80;0.60;;;;;;;14.11;100.00;98769.73;106653;1273;100927;-51
2023/08/28 01:38:14;;;;;;;0.90;0.60;;;;;;;14.03;100.00;98762.61;106582;1273;24758;-50
2023/08/28 01:41:01;;;;;;;0.90;0.80;;;;;;;13.92;100.00;98758.86;106637;1274;22563;-52
2023/08/28 01:43:44;;;;;;;1.00;0.50;;;;;;;13.83;100.00;98765.58;106496;1274;24622;-53
2023/08/28 01:46:15;;;;;;;1.00;0.40;;;;;;;13.84;100.00;98762.34;106652;1273;22526;-52
2023/08/28 01:48:52;;;;;;;1.40;0.50;;;;;;;13.80;100.00;98764.52;106980;1273;99461;-50
2023/08/28 01:51:26;;;;;;;1.00;0.60;;;;;;;13.82;100.00;98779.90;106645;1267;22588;-50
2023/08/28 01:53:55;;;;;;;0.80;0.60;;;;;;;13.92;100.00;98792.81;106404;1274;98956;-51
2023/08/28 01:56:26;;;;;;;0.70;0.70;;;;;;;13.98;100.00;98791.71;106593;1273;24280;-51
2023/08/28 01:58:57;;;;;;;1.40;0.80;;;;;;;14.03;100.00;98794.64;106521;1273;22619;-52
2023/08/28 02:01:27;;;;;;;0.50;0.50;;;;;;;14.07;100.00;98794.14;106681;1273;24189;-53
2023/08/28 02:03:57;;;;;;;1.90;1.50;;;;;;;14.13;100.00;98783.58;106673;1268;22554;-52
2023/08/28 02:06:25;;;;;;;1.60;0.70;;;;;;;14.19;100.00;98802.38;106629;1271;98971;-52
2023/08/28 02:08:54;;;;;;;0.90;0.60;;;;;;;14.18;100.00;98820.98;106571;1274;22563;-51
2023/08/28 02:11:24;;;;;;;1.20;0.90;;;;;;;14.17;100.00;98827.71;106721;1274;99089;-52
2023/08/28 02:13:53;;;;;;;0.90;0.80;;;;;;;14.22;100.00;98829.80;106493;1273;25331;-52
2023/08/28 02:16:22;;;;;;;1.30;0.90;;;;;;;14.32;100.00;98826.71;106654;1272;22551;-52
2023/08/28 02:18:56;;;;;;;1.50;0.90;;;;;;;14.36;100.00;98827.15;106541;1273;99334;-52
2023/08/28 02:21:37;;;;;;;1.10;0.60;;;;;;;14.37;100.00;98811.09;106476;1273;22530;-53
2023/08/28 02:24:06;;;;;;;1.60;0.80;;;;;;;14.44;100.00;98810.02;106554;1275;99213;-52
2023/08/28 02:26:35;;;;;;;1.10;0.80;;;;;;;14.51;100.00;98813.35;106456;1275;22568;-52
2023/08/28 02:29:07;;;;;;;1.30;0.80;;;;;;;14.58;100.00;98821.44;106416;1273;99080;-51
2023/08/28 02:31:35;;;;;;;1.50;0.80;;;;;;;14.64;100.00;98830.92;106419;1273;22732;-51
2023/08/28 02:34:06;;;;;;;1.30;0.80;;;;;;;14.64;100.00;98833.02;106465;1273;22527;-50
2023/08/28 02:36:34;;;;;;;1.30;0.70;;;;;;;14.64;100.00;98834.84;106615;1274;99365;-51
2023/08/28 02:39:06;;;;;;;1.50;0.90;;;;;;;14.64;100.00;98836.20;106434;1273;24269;-51
2023/08/28 02:41:35;;;;;;;1.50;1.00;;;;;;;14.67;100.00;98835.98;106429;1274;99183;-50
2023/08/28 02:44:06;;;;;;;1.10;1.00;;;;;;;14.64;100.00;98832.70;106683;1273;22736;-50
2023/08/28 02:46:35;;;;;;;0.90;0.80;;;;;;;14.63;100.00;98831.04;106648;1274;25455;-50
2023/08/28 02:49:18;;;;;;;1.00;0.80;;;;;;;14.63;100.00;98829.13;106637;1275;99010;-52
2023/08/28 02:51:53;;;;;;;1.10;0.80;;;;;;;14.63;100.00;98823.48;106893;1270;24389;-52
2023/08/28 02:54:29;;;;;;;1.30;0.60;;;;;;;14.67;100.00;98815.80;106386;1273;98985;-52
2023/08/28 02:57:00;;;;;;;1.50;1.40;;;;;;;14.70;100.00;98807.30;106874;1273;25346;-53
2023/08/28 02:59:36;;;;;;;1.20;0.60;;;;;;;14.73;100.00;98817.40;106637;1273;99128;-51
2023/08/28 03:02:08;;;;;;;0.70;0.70;;;;;;;14.75;100.00;98837.25;107167;1258;22735;-50
2023/08/28 03:04:43;;;;;;;0.90;0.70;;;;;;;14.76;100.00;98842.27;106548;1273;22532;-51
2023/08/28 03:07:12;;;;;;;1.70;0.70;;;;;;;14.71;100.00;98833.15;106448;1273;99866;-51
2023/08/28 03:09:41;;;;;;;0.90;0.70;;;;;;;14.64;100.00;98832.33;106978;1273;22532;-51
2023/08/28 03:12:20;;;;;;;0.70;0.70;;;;;;;14.58;100.00;98832.66;106713;1273;98905;-53
2023/08/28 03:15:13;;;;;;;1.30;0.90;;;;;;;14.56;100.00;98842.77;106599;1275;22691;-52
2023/08/28 03:17:46;;;;;;;1.00;0.60;;;;;;;14.57;100.00;98847.06;107416;1274;99116;-52
2023/08/28 03:20:17;;;;;;;6.50;0.80;;;;;;;14.59;100.00;98845.34;106797;1274;22579;-52
2023/08/28 03:22:46;;;;;;;1.00;0.70;;;;;;;14.60;100.00;98840.38;108447;1273;23485;-52
2023/08/28 03:25:18;;;;;;;0.80;0.80;;;;;;;14.65;100.00;98833.86;106698;1274;99243;-52
2023/08/28 03:27:50;;;;;;;2.40;0.90;;;;;;;14.67;100.00;98830.67;106924;1273;24276;-52
2023/08/28 03:30:22;;;;;;;1.10;1.00;;;;;;;14.67;100.00;98827.89;106455;1273;98912;-52
2023/08/28 03:32:51;;;;;;;0.70;0.70;;;;;;;14.68;100.00;98823.83;106811;1273;22527;-51
2023/08/28 03:35:21;;;;;;;0.90;0.60;;;;;;;14.67;100.00;98828.23;106963;1273;99098;-50
2023/08/28 03:37:52;;;;;;;0.90;0.70;;;;;;;14.66;100.00;98823.47;107018;1274;24260;-54
2023/08/28 03:40:21;;;;;;;6.60;1.20;;;;;;;14.64;100.00;98823.08;106747;1274;22822;-51
2023/08/28 03:42:59;;;;;;;0.80;0.60;;;;;;;14.66;100.00;98812.08;106634;1274;98931;-51
2023/08/28 03:45:29;;;;;;;0.90;0.70;;;;;;;14.68;100.00;98810.66;106554;1258;24242;-52
2023/08/28 03:48:04;;;;;;;2.50;0.60;;;;;;;14.72;100.00;98800.34;106968;1273;98877;-52
2023/08/28 03:50:47;;;;;;;0.80;0.70;;;;;;;14.72;100.00;98794.19;106652;1273;22526;-53
2023/08/28 03:53:17;;;;;;;1.00;0.70;;;;;;;14.66;100.00;98806.46;106625;1271;99205;-51
2023/08/28 03:55:48;;;;;;;0.70;0.40;;;;;;;14.60;100.00;98817.08;106649;1275;22523;-52
2023/08/28 03:58:22;;;;;;;0.60;0.50;;;;;;;14.53;100.00;98819.70;106715;1273;22526;-52
2023/08/28 04:00:57;;;;;;;1.60;0.80;;;;;;;14.40;100.00;98816.82;106434;1277;99574;-52
2023/08/28 04:03:26;;;;;;;1.00;0.60;;;;;;;14.30;100.00;98815.67;106672;1277;22765;-53
2023/08/28 04:05:59;;;;;;;1.00;0.70;;;;;;;14.25;100.00;98813.27;106780;1274;98789;-52
2023/08/28 04:08:31;;;;;;;3.20;0.80;;;;;;;14.17;100.00;98812.32;106499;1267;22636;-53
2023/08/28 04:11:00;;;;;;;0.80;0.60;;;;;;;14.05;100.00;98822.65;106564;1273;25404;-51
2023/08/28 04:13:32;;;;;;;2.70;0.80;;;;;;;13.97;100.00;98828.66;106504;1273;25292;-52
2023/08/28 04:16:05;;;;;;;0.80;0.60;;;;;;;13.91;100.00;98838.39;106659;1273;25357;-52
2023/08/28 04:18:34;;;;;;;0.90;0.70;;;;;;;13.82;100.00;98844.13;106523;1273;98924;-53
2023/08/28 04:21:04;;;;;;;1.00;0.70;;;;;;;13.82;100.00;98855.38;106429;1276;25478;-51
2023/08/28 04:23:33;;;;;;;1.40;0.70;;;;;;;13.91;100.00;98862.55;108302;1275;99757;-51
2023/08/28 04:26:03;;;;;;;1.20;0.70;;;;;;;14.03;100.00;98860.20;107341;1274;24273;-51
2023/08/28 04:28:36;;;;;;;0.90;0.80;;;;;;;14.15;100.00;98864.44;106462;1273;22522;-52
2023/08/28 04:31:19;;;;;;;1.00;0.70;;;;;;;14.29;100.00;98859.73;106661;1274;98939;-53
2023/08/28 04:34:00;;;;;;;0.70;0.60;;;;;;;14.38;100.00;98850.81;106532;1259;25327;-52
2023/08/28 04:36:30;;;;;;;1.40;0.80;;;;;;;14.40;100.00;98851.63;106643;1274;99038;-53
2023/08/28 04:39:04;;;;;;;1.10;0.70;;;;;;;14.47;100.00;98852.33;106586;1273;24525;-51
2023/08/28 04:41:36;;;;;;;3.00;0.70;;;;;;;14.60;100.00;98851.55;106487;1276;99419;-52
2023/08/28 04:44:08;;;;;;;0.50;0.50;;;;;;;14.73;100.00;98852.30;106610;1274;22539;-51
2023/08/28 04:46:47;;;;;;;1.60;0.60;;;;;;;14.92;100.00;98852.17;106425;1275;25593;-52
2023/08/28 04:49:37;;;;;;;1.40;0.50;;;;;;;15.14;100.00;98846.11;106919;1275;99277;-54
2023/08/28 04:52:12;;;;;;;0.60;0.60;;;;;;;15.27;100.00;98844.50;107112;1274;24166;-53
2023/08/28 04:54:50;;;;;;;1.00;0.70;;;;;;;15.27;100.00;98848.20;106650;1272;99450;-54
2023/08/28 04:57:25;;;;;;;0.80;0.50;;;;;;;15.22;100.00;98843.33;106933;1275;23486;-53
2023/08/28 05:00:08;;;;;;;1.10;0.80;;;;;;;15.13;100.00;98849.19;106505;1275;99087;-52
2023/08/28 05:03:05;;;;;;;1.00;0.70;;;;;;;15.13;100.00;98850.05;106431;1270;22519;-54
2023/08/28 05:06:14;;;;;;;0.80;0.40;;;;;;;15.18;100.00;98848.37;106769;1273;99119;-53
2023/08/28 05:09:14;;;;;;;;;;;;;;;15.27;100.00;98851.02;107345;1274;24469;-53
2023/08/28 05:11:43;;;;;;;1.00;0.60;;;;;;;15.30;100.00;98850.02;106515;1273;84439;-53
2023/08/28 05:14:12;;;;;;;1.00;0.50;;;;;;;15.34;100.00;98850.60;106699;1273;25607;-52
2023/08/28 05:16:41;;;;;;;0.80;0.60;;;;;;;15.39;100.00;98850.73;106848;1258;23892;-52
2023/08/28 05:19:55;;;;;;;1.10;0.90;;;;;;;15.46;100.00;98849.10;106750;1274;98941;-52
2023/08/28 05:23:13;;;;;;;0.80;0.60;;;;;;;15.56;100.00;98847.06;106341;1280;22552;-52
2023/08/28 05:26:12;;;;;;;0.90;0.60;;;;;;;15.65;100.00;98844.39;106261;1281;22773;-52
2023/08/28 05:28:51;;;;;;;4.90;1.20;;;;;;;15.72;100.00;98838.95;106248;1281;25315;-52
2023/08/28 05:31:36;;;;;;;0.70;0.50;;;;;;;15.79;100.00;98844.64;106604;1281;98971;-49
2023/08/28 05:34:08;;;;;;;1.80;0.80;;;;;;;15.90;100.00;98849.19;106591;1280;23900;-50
2023/08/28 05:36:37;;;;;;;0.80;0.50;;;;;;;15.99;100.00;98850.80;106023;1281;98983;-53
2023/08/28 05:39:07;;;;;;;0.90;0.60;;;;;;;16.05;100.00;98850.59;106428;1280;25229;-51
2023/08/28 05:41:36;;;;;;;1.40;0.60;;;;;;;16.12;100.00;98847.59;106042;1283;100563;-51
2023/08/28 05:44:05;;;;;;;0.70;0.50;;;;;;;16.23;100.00;98848.56;105912;1280;22588;-52
2023/08/28 05:46:36;;;;;;;6.00;0.50;;;;;;;16.33;100.00;98848.44;106296;1280;25378;-52
2023/08/28 05:49:07;;;;;;;1.60;0.60;;;;;;;16.43;100.00;98844.74;105764;1281;99038;-52
2023/08/28 05:51:36;;;;;;;2.30;0.60;;;;;;;16.54;100.00;98843.26;105767;1283;22969;-54
2023/08/28 05:54:08;;;;;;;0.80;0.70;;;;;;;16.66;100.00;98843.13;106771;1280;98966;-51
2023/08/28 05:56:36;;;;;;;1.70;0.70;;;;;;;16.76;100.00;98842.25;105910;1281;22527;-51
2023/08/28 05:59:05;;;;;;;0.40;0.30;;;;;;;16.88;100.00;98841.63;106218;1275;24964;-52
2023/08/28 06:01:34;;;;;;;0.70;0.40;;;;;;;16.98;100.00;98846.52;106393;1264;23766;-54
2023/08/28 06:04:03;;;;;;;1.00;0.60;;;;;;;17.06;100.00;98852.87;106687;1275;237865;-51
2023/08/28 06:06:32;;;;;;;0.80;0.50;;;;;;;17.13;100.00;98858.94;106795;1274;99118;-52
2023/08/28 06:09:03;;;;;;;1.30;0.90;;;;;;;17.18;100.00;98854.04;106456;1275;25346;-54
2023/08/28 06:11:33;;;;;;;0.90;0.60;;;;;;;17.26;100.00;98854.80;106406;1275;99472;-54
2023/08/28 06:14:02;;;;;;;0.90;0.50;;;;;;;17.35;100.00;98849.23;106388;1277;22524;-53
2023/08/28 06:16:31;;;;;;;0.80;0.60;;;;;;;17.49;100.00;98846.95;109975;1274;23011;-55
2023/08/28 06:19:03;;;;;;;1.30;0.50;;;;;;;17.58;100.00;98839.73;109932;1274;98950;-55
2023/08/28 06:21:33;;;;;;;0.70;0.50;;;;;;;17.65;100.00;98842.62;107693;1274;23066;-52
2023/08/28 06:24:02;;;;;;;2.30;0.60;;;;;;;17.70;100.00;98840.45;106216;1275;98997;-53
2023/08/28 06:26:31;;;;;;;0.70;0.50;;;;;;;17.78;100.00;98842.44;106790;1275;25308;-53
2023/08/28 06:29:00;;;;;;;1.70;0.50;;;;;;;17.83;100.00;98841.45;106726;1274;25422;-54
2023/08/28 06:31:29;;;;;;;0.40;0.30;;;;;;;17.96;100.00;98843.80;107110;1277;98792;-56
2023/08/28 06:33:58;;;;;;;0.80;0.50;;;;;;;18.07;100.00;98845.70;106574;1275;24199;-55
2023/08/28 06:36:30;;;;;;;3.60;1.10;;;;;;;18.20;100.00;98846.27;106854;1274;99523;-53
2023/08/28 06:38:59;;;;;;;1.90;1.00;;;;;;;18.27;100.00;98848.34;110045;1274;22354;-55
2023/08/28 06:41:28;;;;;;;0.60;0.50;;;;;;;18.34;100.00;98852.80;107711;1278;99739;-55
2023/08/28 06:44:04;;;;;;;0.70;0.60;;;;;;;18.39;100.00;98850.86;106938;1275;25345;-52
2023/08/28 06:46:33;;;;;;;1.60;0.90;;;;;;;18.41;100.00;98859.10;106442;1275;26243;-54
2023/08/28 06:49:02;;;;;;;0.60;0.60;;;;;;;18.45;100.00;98857.74;106585;1275;98949;-53
2023/08/28 06:51:40;;;;;;;0.60;0.50;;;;;;;18.52;100.00;98856.87;106607;1274;22526;-47
2023/08/28 06:54:13;;;;;;;0.80;0.50;;;;;;;18.62;100.00;98859.45;106298;1266;99098;-53
2023/08/28 06:56:41;;;;;;;1.30;0.60;;;;;;;18.78;100.00;98862.91;106307;1274;22543;-54
2023/08/28 06:59:10;;;;;;;1.40;0.40;;;;;;;18.93;100.00;98863.27;106132;1274;99108;-53
2023/08/28 07:01:55;;;;;;;0.90;0.60;;;;;;;19.09;100.00;98868.29;106930;1274;22530;-61
2023/08/28 07:04:26;;;;;;;1.00;0.60;;;;;;;19.21;100.00;98871.13;107588;1273;24316;-59
2023/08/28 07:07:40;;;;;;;0.70;0.50;;;;;;;19.39;100.00;98870.48;107484;1275;99127;-66
2023/08/28 07:10:51;;;;;;;1.00;0.50;;;;;;;19.76;100.00;98879.92;107163;1282;25497;-57
2023/08/28 07:13:20;;;;;;;3.40;0.50;;;;;;;19.93;100.00;98878.07;105940;1283;99242;-51
2023/08/28 07:15:49;;;;;;;1.50;0.90;;;;;;;20.04;100.00;98884.36;107402;1283;25113;-53
2023/08/28 07:18:17;;;;;;;1.80;0.60;;;;;;;20.20;100.00;98886.44;106362;1283;99335;-54
2023/08/28 07:20:47;;;;;;;2.70;0.70;;;;;;;20.42;100.00;98888.18;106109;1283;26817;-57
2023/08/28 07:23:16;;;;;;;1.00;0.60;;;;;;;20.76;100.00;98890.94;106280;1283;23090;-55
2023/08/28 07:25:48;;;;;;;2.00;0.80;;;;;;;20.95;100.00;98896.60;106248;1283;99362;-52
2023/08/28 07:28:18;;;;;;;1.00;0.60;;;;;;;21.21;100.00;98906.63;108774;1283;25423;-53
2023/08/28 07:30:47;;;;;;;0.60;0.50;;;;;;;21.52;100.00;98906.25;105998;1283;22669;-50
2023/08/28 07:33:18;;;;;;;2.40;0.80;;;;;;;21.76;100.00;98911.26;105990;1283;99094;-53
2023/08/28 07:35:47;;;;;;;0.90;0.60;;;;;;;21.96;100.00;98914.95;107418;1269;22543;-52
2023/08/28 07:38:17;;;;;;;0.90;0.70;;;;;;;22.20;100.00;98911.95;105903;1283;99329;-53
2023/08/28 07:40:47;;;;;;;0.90;0.60;;;;;;;22.23;100.00;98912.98;106851;1277;99761;-54
2023/08/28 07:43:17;;;;;;;5.40;1.20;;;;;;;22.42;100.00;98913.59;105934;1283;22561;-54
2023/08/28 07:45:46;;;;;;;1.40;1.00;;;;;;;22.32;99.68;98919.59;106074;1283;99585;-54
2023/08/28 07:48:18;;;;;;;1.80;1.50;;;;;;;21.93;98.23;98920.80;106622;1274;22897;-54
2023/08/28 07:50:49;;;;;;;2.40;1.50;;;;;;;21.57;98.44;98921.99;106042;1275;98983;-53
2023/08/28 07:53:18;;;;;;;4.20;2.70;;;;;;;21.14;97.51;98926.98;106441;1275;25363;-55
2023/08/28 07:55:46;;;;;;;3.70;2.60;;;;;;;20.73;97.11;98924.14;106640;1274;99468;-53
2023/08/28 07:58:18;;;;;;;3.10;2.40;;;;;;;20.38;96.44;98933.63;106345;1274;98895;-53
2023/08/28 08:00:46;;;;;;;3.60;2.80;;;;;;;20.05;96.29;98935.73;106541;1273;25334;-52
2023/08/28 08:03:19;;;;;;;3.20;2.40;;;;;;;19.74;95.69;98937.19;106949;1267;99140;-52
2023/08/28 08:05:52;;;;;;;2.60;2.40;;;;;;;19.62;95.75;98935.46;106196;1264;22598;-54
2023/08/28 08:08:21;;;;;;;3.10;2.60;;;;;;;19.54;95.64;98940.86;106150;1274;98831;-52
2023/08/28 08:10:50;;;;;;;3.10;2.50;;;;;;;19.54;95.74;98948.94;106292;1274;98905;-53
2023/08/28 08:13:18;;;;;;;2.30;1.80;;;;;;;19.60;95.02;98950.85;107663;1275;24038;-54
2023/08/28 08:15:47;;;;;;;3.60;2.40;;;;;;;19.98;96.49;98943.98;107658;1276;99326;-52
2023/08/28 08:18:16;;;;;;;3.00;1.80;;;;;;;21.58;99.57;98942.33;107439;1275;22927;-53
2023/08/28 08:20:45;;;;;;;6.20;2.20;;;;;;;23.97;99.68;98939.93;106865;1277;99670;-53
2023/08/28 08:23:14;;;;;;;2.20;1.80;;;;;;;26.41;98.69;98940.16;106712;1273;25361;-54
2023/08/28 08:25:46;;;;;;;1.60;1.40;;;;;;;28.21;95.05;98940.96;106930;1276;99376;-54
2023/08/28 08:28:15;;;;;;;1.30;0.80;;;;;;;29.21;93.33;98935.34;106506;1275;98845;-55
2023/08/28 08:30:44;;;;;;;2.00;1.50;;;;;;;30.61;94.68;98937.50;106285;1275;24742;-55
2023/08/28 08:33:13;;;;;;;0.90;0.70;;;;;;;31.60;93.22;98933.28;107209;1275;99168;-55
2023/08/28 08:35:42;;;;;;;1.60;1.00;;;;;;;32.16;89.43;98929.81;110028;1267;22292;-56
2023/08/28 08:38:12;;;;;;;0.70;0.60;;;;;;;32.73;86.77;98930.05;108147;1278;99347;-54
2023/08/28 08:40:50;;;;;;;1.50;0.70;;;;;;;33.69;87.06;98935.96;106571;1274;98846;-55
2023/08/28 08:43:19;;;;;;;1.90;0.90;;;;;;;34.37;84.34;98942.55;108911;1272;22537;-55
2023/08/28 08:45:52;;;;;;;1.80;0.80;;;;;;;33.51;80.60;98946.65;106678;1275;98989;-55
2023/08/28 08:48:24;;;;;;;1.00;0.70;;;;;;;33.31;78.53;98945.86;107092;1277;23134;-55
2023/08/28 08:51:01;;;;;;;1.10;0.50;;;;;;;32.80;77.28;98951.40;106437;1273;98959;-54
2023/08/28 08:53:43;;;;;;;0.90;0.80;;;;;;;35.31;79.58;98955.45;106450;1275;22529;-55
2023/08/28 08:56:20;;;;;;;1.90;0.80;;;;;;;38.25;76.56;98961.83;109924;1275;98982;-55
2023/08/28 08:58:49;;;;;;;1.00;0.60;;;;;;;39.94;71.90;98964.84;109281;1274;98747;-56
2023/08/28 09:01:19;;;;;;;0.90;0.70;;;;;;;40.83;69.06;98958.83;107380;1274;25367;-55
2023/08/28 09:03:52;;;;;;;0.80;0.50;;;;;;;42.04;68.32;98957.45;108645;1275;102415;-56
2023/08/28 09:06:22;;;;;;;1.30;1.00;;;;;;;41.98;61.26;98962.91;106356;1273;25375;-56
2023/08/28 09:08:51;;;;;;;0.70;0.70;;;;;;;40.33;58.15;98964.92;106315;1275;99731;-54
2023/08/28 09:11:20;;;;;;;0.50;0.30;;;;;;;41.14;58.47;98961.63;106529;1275;22536;-57
2023/08/28 09:13:49;;;;;;;1.20;0.60;;;;;;;43.17;56.59;98958.18;106294;1275;99386;-56
2023/08/28 09:16:18;;;;;;;0.70;0.70;;;;;;;43.82;52.00;98960.27;106588;1275;99280;-56
2023/08/28 09:18:49;;;;;;;0.60;0.60;;;;;;;44.23;50.30;98960.63;107338;1271;22520;-56
2023/08/28 09:21:19;;;;;;;0.80;0.60;;;;;;;44.66;45.50;98966.14;106628;1275;98981;-56
2023/08/28 09:23:52;;;;;;;0.70;0.70;;;;;;;45.45;42.92;98963.00;106561;1273;22537;-56
2023/08/28 09:26:22;;;;;;;1.10;0.80;;;;;;;45.71;40.31;98970.64;106546;1274;99399;-56
2023/08/28 09:29:04;;;;;;;0.80;0.70;;;;;;;46.48;39.17;98970.31;106392;1271;98905;-57
2023/08/28 09:31:35;;;;;;;1.20;0.80;;;;;;;47.81;37.86;98971.57;106668;1266;22541;-55
2023/08/28 09:34:05;;;;;;;2.00;0.90;;;;;;;47.78;34.35;98973.30;106501;1273;99256;-56
2023/08/28 09:36:40;;;;;;;0.90;0.90;;;;;;;47.37;32.05;98976.42;106538;1275;22546;-56
2023/08/28 09:39:13;;;;;;;3.40;1.20;;;;;;;47.00;30.63;98980.23;106904;1273;99538;-57
2023/08/28 09:42:35;;;;;;;0.90;0.80;;;;;;;47.36;30.76;98977.35;107522;1275;22582;-57
2023/08/28 09:45:22;;;;;;;1.20;1.10;;;;;;;46.39;28.93;98972.58;107606;1274;98938;-57
2023/08/28 09:47:54;;;;;;;1.20;1.10;;;;;;;46.28;28.41;98971.33;107931;1274;23483;-57
2023/08/28 09:50:28;;;;;;;0.60;0.50;;;;;;;45.67;27.00;98969.73;106613;1274;98747;-57
2023/08/28 09:53:12;;;;;;;0.70;0.70;;;;;;;43.91;25.93;98970.43;106650;1274;98565;-58
2023/08/28 09:55:57;;;;;;;3.00;0.70;;;;;;;41.78;25.73;98964.10;106799;1274;98993;-57
2023/08/28 09:58:56;;;;;;;1.10;0.70;;;;;;;39.33;26.17;98961.45;106960;1274;98722;-57
2023/08/28 10:01:31;;;;;;;0.60;0.50;;;;;;;40.08;26.51;98960.31;106493;1276;25527;-56
2023/08/28 10:04:02;;;;;;;1.00;0.50;;;;;;;41.27;25.82;98961.90;106355;1274;98906;-57
2023/08/28 10:06:34;;;;;;;1.80;0.50;;;;;;;41.83;26.05;98963.42;106481;1275;23182;-57
2023/08/28 10:09:05;;;;;;;0.70;0.40;;;;;;;43.16;26.01;98957.36;106244;1273;99531;-57
2023/08/28 10:11:43;;;;;;;0.80;0.70;;;;;;;44.65;25.84;98959.33;107286;1273;22894;-58
2023/08/28 10:14:29;;;;;;;2.40;0.80;;;;;;;44.94;25.30;98954.25;106877;1276;101766;-57
2023/08/28 10:17:18;;;;;;;1.30;0.90;;;;;;;46.38;25.71;98953.57;107087;1277;23440;-55
2023/08/28 10:19:54;;;;;;;1.30;1.20;;;;;;;48.21;25.61;98954.59;106348;1274;99031;-57
2023/08/28 10:22:25;;;;;;;2.00;1.90;;;;;;;49.81;24.95;98954.81;106394;1274;99945;-56
2023/08/28 10:24:57;;;;;;;2.00;1.90;;;;;;;50.50;23.42;98953.27;106420;1274;22616;-58
2023/08/28 10:27:26;;;;;;;2.90;2.70;;;;;;;50.12;22.88;98949.77;106492;1273;99151;-57
2023/08/28 10:29:57;;;;;;;3.10;3.00;;;;;;;50.91;22.66;98942.95;106788;1275;22552;-57
2023/08/28 10:32:27;;;;;;;4.30;4.10;;;;;;;51.13;21.79;98944.27;106409;1272;98776;-60
2023/08/28 10:35:10;;;;;;;4.50;4.30;;;;;;;51.23;21.39;98946.17;107841;1274;99088;-59
2023/08/28 10:37:42;;;;;;;4.20;4.00;;;;;;;50.89;20.07;98943.21;106837;1278;99177;-56
2023/08/28 10:40:12;;;;;;;3.20;3.00;;;;;;;48.42;19.38;98945.52;106325;1273;100333;-56
2023/08/28 10:42:42;;;;;;;3.40;3.20;;;;;;;48.25;19.56;98951.52;106498;1274;22739;-57
2023/08/28 10:45:11;;;;;;;3.70;3.50;;;;;;;48.60;19.18;98955.44;106886;1274;100387;-56
2023/08/28 10:47:47;;;;;;;3.20;3.10;;;;;;;48.61;18.53;98959.25;106597;1275;22527;-57
2023/08/28 10:50:16;;;;;;;2.40;2.30;;;;;;;46.77;18.65;98961.24;106444;1275;98936;-57
2023/08/28 10:52:46;;;;;;;9.50;3.10;;;;;;;46.46;18.76;98953.43;107204;1275;99373;-58
2023/08/28 10:55:18;;;;;;;2.90;2.80;;;;;;;47.53;18.96;98957.49;106355;1275;22524;-56
2023/08/28 10:57:49;;;;;;;3.90;3.70;;;;;;;49.57;18.97;98957.41;106666;1264;98962;-56
2023/08/28 11:00:21;;;;;;;5.10;4.80;;;;;;;50.98;18.82;98965.72;106185;1274;25297;-56
2023/08/28 11:03:10;;;;;;;;;;;;;;;51.54;17.95;98970.30;106527;1276;99274;-56
2023/08/28 11:05:40;;;;;;;7.10;6.70;;;;;;;51.41;17.48;98975.11;106485;1278;23851;-56
2023/08/28 11:08:11;;;;;;;45.30;22.90;;;;;;;50.95;16.99;98975.35;106345;1274;99878;-57
2023/08/28 11:10:44;;;;;;;10.20;8.60;;;;;;;49.89;16.85;98979.88;106299;1276;99661;-56
2023/08/28 11:13:23;;;;;;;;;;;;;;;50.90;16.78;98969.27;106373;1273;24240;-58
2023/08/28 11:16:02;;;;;;;48.80;22.40;;;;;;;51.19;16.45;98966.80;106563;1273;85369;-57
2023/08/28 11:18:31;;;;;;;18.30;14.20;;;;;;;51.20;16.09;98968.73;106619;1275;25284;-57
2023/08/28 11:21:03;;;;;;;12.40;11.80;;;;;;;51.26;15.53;98970.87;106295;1272;99508;-56
2023/08/28 11:23:36;;;;;;;15.10;14.00;;;;;;;52.06;16.00;98968.56;110144;1274;22136;-56
2023/08/28 11:26:17;;;;;;;13.30;12.20;;;;;;;52.74;15.57;98975.50;106911;1270;99648;-57
2023/08/28 11:28:48;;;;;;;8.20;7.40;;;;;;;50.33;15.40;98970.59;106260;1273;99153;-57
2023/08/28 11:31:19;;;;;;;4.20;3.90;;;;;;;47.65;15.84;98972.38;110089;1273;22893;-57
2023/08/28 11:33:49;;;;;;;2.50;2.40;;;;;;;46.71;15.89;98964.64;106327;1273;99100;-57
2023/08/28 11:36:18;;;;;;;1.80;1.20;;;;;;;44.97;15.87;98970.23;106525;1274;22889;-57
2023/08/28 11:38:49;;;;;;;1.00;1.00;;;;;;;42.36;16.41;98970.64;106433;1273;99220;-57
2023/08/28 11:41:18;;;;;;;2.00;1.50;;;;;;;42.78;17.25;98969.52;106504;1275;22998;-58
2023/08/28 11:43:46;;;;;;;0.90;0.80;;;;;;;43.47;17.25;98973.33;106424;1273;99001;-59
2023/08/28 11:46:17;;;;;;;1.20;0.80;;;;;;;43.70;17.42;98976.20;106327;1277;98963;-58
2023/08/28 11:48:48;;;;;;;3.30;1.50;;;;;;;43.72;17.56;98975.82;106483;1274;22610;-58